createdAt,value
2023-04-09T00:01:17.849Z,47.55
2023-04-09T00:03:46.515Z,46.95
2023-04-09T00:06:15.690Z,51.95
2023-04-09T00:08:44.331Z,49.45
2023-04-09T00:11:12.936Z,46.95
2023-04-09T00:13:41.510Z,47.48
2023-04-09T00:16:10.278Z,44.25
2023-04-09T00:18:38.926Z,43.68
2023-04-09T00:21:08.613Z,50.00
2023-04-09T00:23:37.453Z,46.10
2023-04-09T00:26:06.197Z,47.27
2023-04-09T00:28:34.962Z,48.15
2023-04-09T00:31:03.893Z,46.13
2023-04-09T00:33:32.618Z,48.42
2023-04-09T00:36:01.216Z,46.13
2023-04-09T00:38:29.791Z,50.17
2023-04-09T00:40:58.447Z,45.88
2023-04-09T00:43:27.112Z,47.75
2023-04-09T00:45:55.917Z,48.35
2023-04-09T00:48:24.641Z,49.83
2023-04-09T00:50:53.386Z,48.63
2023-04-09T00:53:22.023Z,42.50
2023-04-09T00:55:50.680Z,45.12
2023-04-09T00:58:19.805Z,41.18
2023-04-09T01:00:48.484Z,38.40
2023-04-09T01:03:17.565Z,41.02
2023-04-09T01:05:52.506Z,40.33
2023-04-09T01:08:40.885Z,35.35
2023-04-09T01:11:15.689Z,40.80
2023-04-09T01:13:47.343Z,38.38
2023-04-09T01:16:17.861Z,33.93
2023-04-09T01:18:55.468Z,35.23
2023-04-09T01:21:27.530Z,35.75
2023-04-09T01:24:21.708Z,37.93
2023-04-09T01:26:59.402Z,38.65
2023-04-09T01:29:31.049Z,37.13
2023-04-09T01:32:02.381Z,35.10
2023-04-09T01:34:32.012Z,39.23
2023-04-09T01:37:04.022Z,39.45
2023-04-09T01:39:33.377Z,38.90
2023-04-09T01:42:03.750Z,41.95
2023-04-09T01:44:33.600Z,41.75
2023-04-09T01:47:03.499Z,41.25
2023-04-09T01:49:32.774Z,38.05
2023-04-09T01:52:01.893Z,40.28
2023-04-09T01:54:30.558Z,40.83
2023-04-09T01:56:59.514Z,40.50
2023-04-09T01:59:27.768Z,41.60
2023-04-09T02:02:19.497Z,44.10
2023-04-09T02:04:49.133Z,40.63
2023-04-09T02:07:27.655Z,42.55
2023-04-09T02:09:56.075Z,44.55
2023-04-09T02:12:25.117Z,41.18
2023-04-09T02:14:54.440Z,46.75
2023-04-09T02:17:23.229Z,43.70
2023-04-09T02:19:51.801Z,39.50
2023-04-09T02:22:20.064Z,42.85
2023-04-09T02:24:48.319Z,42.30
2023-04-09T02:27:16.623Z,42.83
2023-04-09T02:29:45.260Z,40.88
2023-04-09T02:32:13.865Z,43.30
2023-04-09T02:34:42.351Z,42.45
2023-04-09T02:37:10.676Z,40.58
2023-04-09T02:39:39.330Z,41.85
2023-04-09T02:42:08.035Z,44.13
2023-04-09T02:44:36.338Z,39.83
2023-04-09T02:47:04.609Z,45.05
2023-04-09T02:49:32.884Z,40.10
2023-04-09T02:52:01.174Z,44.58
2023-04-09T02:54:29.749Z,42.48
2023-04-09T02:56:58.005Z,40.95
2023-04-09T02:59:26.283Z,41.05
2023-04-09T03:01:54.555Z,43.50
2023-04-09T03:04:22.922Z,42.80
2023-04-09T03:06:51.515Z,42.60
2023-04-09T03:09:19.772Z,42.62
2023-04-09T03:11:48.016Z,41.90
2023-04-09T03:14:16.293Z,39.27
2023-04-09T03:16:44.525Z,38.60
2023-04-09T03:19:12.809Z,41.95
2023-04-09T03:21:41.136Z,41.33
2023-04-09T03:24:09.559Z,40.05
2023-04-09T03:26:38.189Z,43.83
2023-04-09T03:29:07.226Z,42.67
2023-04-09T03:34:14.246Z,40.48
2023-04-09T03:36:42.497Z,38.85
2023-04-09T03:39:10.752Z,39.85
2023-04-09T03:41:39.028Z,40.60
2023-04-09T03:44:07.281Z,38.05
2023-04-09T03:46:35.635Z,42.15
2023-04-09T03:49:03.888Z,43.00
2023-04-09T03:51:32.259Z,41.88
2023-04-09T03:54:00.570Z,39.75
2023-04-09T03:56:28.839Z,42.80
2023-04-09T03:58:57.162Z,40.73
2023-04-09T04:01:25.431Z,38.48
2023-04-09T04:03:53.814Z,42.67
2023-04-09T04:06:22.338Z,42.35
2023-04-09T04:08:51.188Z,41.80
2023-04-09T04:11:19.723Z,44.30
2023-04-09T04:13:47.989Z,42.10
2023-04-09T04:16:16.268Z,37.10
2023-04-09T04:18:44.483Z,38.58
2023-04-09T04:21:15.732Z,40.33
2023-04-09T04:23:43.966Z,38.30
2023-04-09T04:26:12.233Z,36.83
2023-04-09T04:28:40.913Z,38.92
2023-04-09T04:31:10.517Z,39.75
2023-04-09T04:33:40.398Z,38.05
2023-04-09T04:36:10.057Z,43.05
2023-04-09T04:38:38.889Z,39.45
2023-04-09T04:41:07.129Z,40.45
2023-04-09T04:43:35.394Z,41.55
2023-04-09T04:46:03.655Z,42.23
2023-04-09T04:48:32.117Z,40.35
2023-04-09T04:51:01.000Z,39.33
2023-04-09T04:53:29.426Z,39.58
2023-04-09T04:55:57.667Z,40.03
2023-04-09T04:58:26.003Z,45.08
2023-04-09T05:00:54.289Z,40.48
2023-04-09T05:03:23.577Z,41.10
2023-04-09T05:05:52.431Z,38.50
2023-04-09T05:08:20.683Z,38.25
2023-04-09T05:10:48.956Z,42.05
2023-04-09T05:13:17.376Z,47.70
2023-04-09T05:15:45.691Z,43.85
2023-04-09T05:18:14.149Z,42.83
2023-04-09T05:20:42.399Z,40.43
2023-04-09T05:23:10.674Z,37.05
2023-04-09T05:25:39.540Z,35.98
2023-04-09T05:28:07.980Z,40.88
2023-04-09T05:30:36.248Z,44.95
2023-04-09T05:33:04.577Z,37.95
2023-04-09T05:35:32.821Z,38.02
2023-04-09T05:38:01.060Z,40.10
2023-04-09T05:40:29.323Z,32.75
2023-04-09T05:42:57.668Z,37.28
2023-04-09T05:45:25.941Z,31.27
2023-04-09T05:47:54.261Z,32.15
2023-04-09T05:50:22.475Z,36.33
2023-04-09T05:52:50.738Z,38.98
2023-04-09T05:55:19.064Z,30.62
2023-04-09T05:57:47.309Z,29.90
2023-04-09T06:00:16.525Z,29.80
2023-04-09T06:02:45.359Z,32.05
2023-04-09T06:05:13.777Z,28.20
2023-04-09T06:07:42.039Z,33.40
2023-04-09T06:10:10.495Z,29.18
2023-04-09T06:12:38.746Z,27.07
2023-04-09T06:15:07.465Z,25.40
2023-04-09T06:17:35.751Z,26.05
2023-04-09T06:20:04.090Z,26.87
2023-04-09T06:22:32.426Z,25.70
2023-04-09T06:25:00.755Z,23.98
2023-04-09T06:27:29.001Z,25.30
2023-04-09T06:29:57.308Z,27.27
2023-04-09T06:32:25.730Z,24.35
2023-04-09T06:34:53.980Z,24.87
2023-04-09T06:37:23.938Z,25.72
2023-04-09T06:40:00.629Z,23.75
2023-04-09T06:42:22.588Z,24.40
2023-04-09T06:44:50.858Z,21.75
2023-04-09T06:47:19.293Z,25.52
2023-04-09T06:49:47.524Z,23.90
2023-04-09T06:52:16.064Z,22.58
2023-04-09T06:54:45.817Z,22.93
2023-04-09T06:57:14.238Z,25.95
2023-04-09T06:59:42.643Z,20.25
2023-04-09T07:02:11.253Z,21.70
2023-04-09T07:04:39.691Z,22.70
2023-04-09T07:07:08.003Z,18.23
2023-04-09T07:09:36.364Z,19.07
2023-04-09T07:12:04.573Z,18.25
2023-04-09T07:14:32.903Z,20.88
2023-04-09T07:17:01.225Z,18.20
2023-04-09T07:19:29.498Z,19.65
2023-04-09T07:21:57.767Z,19.77
2023-04-09T07:24:26.113Z,17.48
2023-04-09T07:26:54.583Z,19.23
2023-04-09T07:29:22.902Z,15.90
2023-04-09T07:31:51.343Z,17.60
2023-04-09T07:34:19.577Z,17.55
2023-04-09T07:36:48.521Z,16.80
2023-04-09T07:39:17.521Z,19.48
2023-04-09T07:41:47.249Z,13.55
2023-04-09T07:44:15.556Z,15.03
2023-04-09T07:46:44.462Z,16.67
2023-04-09T07:49:12.694Z,14.05
2023-04-09T07:51:40.930Z,14.30
2023-04-09T07:54:09.292Z,17.23
2023-04-09T07:56:37.552Z,16.37
2023-04-09T07:59:07.222Z,14.20
2023-04-09T08:01:35.503Z,12.45
2023-04-09T08:04:03.943Z,15.78
2023-04-09T08:06:32.379Z,16.52
2023-04-09T08:09:01.010Z,17.85
2023-04-09T08:11:29.359Z,14.87
2023-04-09T08:13:57.993Z,16.32
2023-04-09T08:16:26.456Z,17.42
2023-04-09T08:18:55.061Z,14.95
2023-04-09T08:21:23.916Z,16.15
2023-04-09T08:23:52.250Z,12.37
2023-04-09T08:26:20.664Z,13.80
2023-04-09T08:28:49.022Z,12.88
2023-04-09T08:31:17.630Z,14.65
2023-04-09T08:33:46.216Z,14.55
2023-04-09T08:36:14.559Z,11.50
2023-04-09T08:38:44.529Z,12.37
2023-04-09T08:41:15.119Z,12.28
2023-04-09T08:43:56.825Z,10.03
2023-04-09T08:46:15.324Z,11.18
2023-04-09T08:48:45.757Z,11.60
2023-04-09T08:51:15.642Z,10.98
2023-04-09T08:53:47.641Z,11.18
2023-04-09T08:56:15.954Z,9.63
2023-04-09T08:58:44.886Z,9.65
2023-04-09T09:01:22.827Z,10.63
2023-04-09T09:03:57.019Z,11.35
2023-04-09T09:06:27.885Z,9.43
2023-04-09T09:09:09.806Z,9.38
2023-04-09T09:11:39.554Z,9.35
2023-04-09T09:14:09.021Z,9.48
2023-04-09T09:16:40.539Z,8.78
2023-04-09T09:19:09.291Z,8.68
2023-04-09T09:21:38.559Z,7.92
2023-04-09T09:24:08.331Z,7.47
2023-04-09T09:26:38.124Z,7.83
2023-04-09T09:29:06.486Z,7.80
2023-04-09T09:31:36.301Z,9.05
2023-04-09T09:34:06.095Z,8.00
2023-04-09T09:36:35.014Z,7.65
2023-04-09T09:39:07.349Z,7.92
2023-04-09T09:41:35.622Z,8.15
2023-04-09T09:44:05.598Z,6.00
2023-04-09T09:46:42.230Z,5.87
2023-04-09T09:49:10.601Z,7.55
2023-04-09T09:51:40.670Z,7.45
2023-04-09T09:54:10.608Z,6.03
2023-04-09T09:56:39.773Z,7.33
2023-04-09T09:59:09.593Z,6.83
2023-04-09T10:01:38.292Z,6.60
2023-04-09T10:04:07.302Z,5.10
2023-04-09T10:06:35.961Z,6.87
2023-04-09T10:09:06.573Z,6.12
2023-04-09T10:11:36.671Z,6.35
2023-04-09T10:14:08.019Z,8.23
2023-04-09T10:16:36.346Z,6.45
2023-04-09T10:19:05.172Z,6.95
2023-04-09T10:21:37.717Z,7.15
2023-04-09T10:24:07.832Z,6.55
2023-04-09T10:26:36.824Z,6.70
2023-04-09T10:29:06.862Z,6.65
2023-04-09T10:31:54.769Z,7.47
2023-04-09T10:34:24.506Z,7.95
2023-04-09T10:37:02.771Z,8.25
2023-04-09T10:39:34.486Z,7.87
2023-04-09T10:42:04.270Z,8.93
2023-04-09T10:44:32.613Z,9.03
2023-04-09T10:47:00.858Z,8.00
2023-04-09T10:49:30.828Z,8.13
2023-04-09T10:52:02.799Z,6.72
2023-04-09T10:54:35.260Z,5.70
2023-04-09T10:57:11.176Z,6.92
2023-04-09T10:59:42.586Z,8.45
2023-04-09T11:02:14.120Z,6.58
2023-04-09T11:04:43.962Z,6.85
2023-04-09T11:07:13.552Z,7.22
2023-04-09T11:09:42.381Z,8.53
2023-04-09T11:12:12.167Z,7.37
2023-04-09T11:14:40.431Z,7.22
2023-04-09T11:17:08.779Z,7.60
2023-04-09T11:19:37.121Z,9.58
2023-04-09T11:22:07.494Z,7.60
2023-04-09T11:24:43.390Z,7.90
2023-04-09T11:27:11.648Z,7.78
2023-04-09T11:29:39.937Z,7.05
2023-04-09T11:32:08.295Z,7.45
2023-04-09T11:34:36.608Z,8.78
2023-04-09T11:37:06.973Z,10.43
2023-04-09T11:39:38.414Z,9.63
2023-04-09T11:42:06.717Z,9.63
2023-04-09T11:44:35.004Z,9.95
2023-04-09T11:47:03.459Z,9.40
2023-04-09T11:49:32.073Z,9.70
2023-04-09T11:52:01.749Z,8.23
2023-04-09T11:54:33.437Z,7.42
2023-04-09T11:57:02.049Z,8.78
2023-04-09T11:59:30.763Z,9.05
2023-04-09T12:01:59.440Z,8.13
2023-04-09T12:04:27.787Z,9.13
2023-04-09T12:06:59.261Z,8.55
2023-04-09T12:09:27.914Z,8.98
2023-04-09T12:11:57.495Z,9.98
2023-04-09T12:14:25.763Z,10.00
2023-04-09T12:16:54.028Z,10.95
2023-04-09T12:19:23.937Z,10.68
2023-04-09T12:21:56.180Z,8.93
2023-04-09T12:24:27.223Z,9.35
2023-04-09T12:26:56.332Z,9.30
2023-04-09T12:29:26.637Z,6.80
2023-04-09T12:31:54.936Z,7.80
2023-04-09T12:34:24.382Z,9.20
2023-04-09T12:36:52.675Z,7.45
2023-04-09T12:39:20.979Z,7.20
2023-04-09T12:41:49.232Z,9.20
2023-04-09T12:44:17.493Z,9.53
2023-04-09T12:46:45.735Z,9.68
2023-04-09T12:49:15.328Z,7.62
2023-04-09T12:51:43.602Z,8.33
2023-04-09T12:54:11.863Z,8.88
2023-04-09T12:56:40.206Z,8.08
2023-04-09T12:59:08.449Z,7.20
2023-04-09T13:01:36.785Z,8.03
2023-04-09T13:04:05.084Z,8.18
2023-04-09T13:06:33.339Z,7.08
2023-04-09T13:09:01.631Z,5.28
2023-04-09T13:11:29.882Z,7.40
2023-04-09T13:13:58.138Z,8.03
2023-04-09T13:16:26.673Z,6.95
2023-04-09T13:18:55.128Z,6.00
2023-04-09T13:21:23.577Z,7.95
2023-04-09T13:23:51.893Z,5.72
2023-04-09T13:26:20.627Z,8.00
2023-04-09T13:28:48.882Z,8.68
2023-04-09T13:31:17.189Z,8.38
2023-04-09T13:33:45.388Z,8.60
2023-04-09T13:36:13.753Z,7.78
2023-04-09T13:38:42.058Z,7.37
2023-04-09T13:41:10.276Z,6.15
2023-04-09T13:43:38.605Z,9.38
2023-04-09T13:46:06.901Z,6.58
2023-04-09T13:48:35.216Z,7.12
2023-04-09T13:51:03.662Z,7.55
2023-04-09T13:53:31.899Z,7.40
2023-04-09T13:56:00.132Z,6.58
2023-04-09T13:58:28.418Z,7.72
2023-04-09T14:00:56.651Z,6.00
2023-04-09T14:03:25.180Z,6.72
2023-04-09T14:05:53.430Z,6.47
2023-04-09T14:08:21.875Z,7.20
2023-04-09T14:10:50.160Z,7.50
2023-04-09T14:13:18.406Z,7.65
2023-04-09T14:15:46.764Z,5.17
2023-04-09T14:18:15.473Z,6.65
2023-04-09T14:20:43.737Z,6.75
2023-04-09T14:23:12.050Z,6.75
2023-04-09T14:25:41.913Z,6.72
2023-04-09T14:28:10.211Z,7.72
2023-04-09T14:30:38.506Z,6.35
2023-04-09T14:33:06.918Z,6.87
2023-04-09T14:35:35.388Z,5.87
2023-04-09T14:38:06.479Z,6.45
2023-04-09T14:40:34.705Z,6.47
2023-04-09T14:43:03.064Z,5.55
2023-04-09T14:45:31.322Z,5.12
2023-04-09T14:47:59.638Z,6.17
2023-04-09T14:50:27.914Z,6.15
2023-04-09T14:52:56.193Z,5.83
2023-04-09T14:55:25.631Z,7.83
2023-04-09T14:57:53.949Z,5.55
2023-04-09T15:00:22.663Z,6.72
2023-04-09T15:02:51.158Z,6.47
2023-04-09T15:05:19.745Z,6.37
2023-04-09T15:07:48.000Z,5.17
2023-04-09T15:10:16.266Z,4.87
2023-04-09T15:12:44.543Z,5.25
2023-04-09T15:15:16.559Z,8.03
2023-04-09T15:20:50.451Z,6.83
2023-04-09T15:23:18.714Z,5.17
2023-04-09T15:25:47.039Z,4.35
2023-04-09T15:28:15.303Z,5.95
2023-04-09T15:30:43.557Z,5.92
2023-04-09T15:33:21.340Z,5.28
2023-04-09T15:35:49.716Z,6.95
2023-04-09T15:38:17.965Z,5.62
2023-04-09T15:40:46.210Z,6.42
2023-04-09T15:43:14.525Z,5.62
2023-04-09T15:45:42.813Z,6.10
2023-04-09T15:48:11.215Z,5.37
2023-04-09T15:50:39.597Z,6.42
2023-04-09T15:53:07.895Z,7.58
2023-04-09T15:55:36.165Z,6.60
2023-04-09T15:58:04.434Z,6.50
2023-04-09T16:00:32.878Z,6.67
2023-04-09T16:03:01.146Z,6.65
2023-04-09T16:05:29.468Z,5.12
2023-04-09T16:07:59.564Z,4.95
2023-04-09T16:10:27.572Z,7.30
2023-04-09T16:12:55.945Z,4.95
2023-04-09T16:15:24.223Z,6.35
2023-04-09T16:17:52.514Z,5.80
2023-04-09T16:20:20.887Z,6.00
2023-04-09T16:22:49.141Z,6.92
2023-04-09T16:25:17.381Z,7.28
2023-04-09T16:27:45.968Z,6.70
2023-04-09T16:30:17.371Z,5.22
2023-04-09T16:32:45.726Z,6.12
2023-04-09T16:35:13.979Z,6.33
2023-04-09T16:37:42.228Z,6.75
2023-04-09T16:40:10.733Z,6.35
2023-04-09T16:42:39.064Z,5.17
2023-04-09T16:45:09.461Z,3.77
2023-04-09T16:47:37.762Z,5.40
2023-04-09T16:50:08.085Z,4.30
2023-04-09T16:52:37.092Z,6.10
2023-04-09T16:55:05.631Z,3.62
2023-04-09T16:57:33.952Z,5.08
2023-04-09T17:00:03.892Z,5.75
2023-04-09T17:02:32.423Z,6.22
2023-04-09T17:05:00.713Z,5.40
2023-04-09T17:07:30.175Z,4.62
2023-04-09T17:09:58.485Z,5.80
2023-04-09T17:12:27.749Z,4.97
2023-04-09T17:14:55.987Z,5.33
2023-04-09T17:17:24.438Z,5.42
2023-04-09T17:19:53.143Z,5.17
2023-04-09T17:22:21.382Z,5.72
2023-04-09T17:24:49.653Z,5.28
2023-04-09T17:27:19.389Z,3.85
2023-04-09T17:29:47.687Z,6.45
2023-04-09T17:32:16.109Z,7.47
2023-04-09T17:34:46.049Z,8.35
2023-04-09T17:37:15.958Z,6.97
2023-04-09T17:39:44.332Z,6.72
2023-04-09T17:42:12.609Z,5.47
2023-04-09T17:44:41.248Z,6.92
2023-04-09T17:47:12.521Z,7.22
2023-04-09T17:49:41.197Z,5.75
2023-04-09T17:52:09.468Z,6.28
2023-04-09T17:54:39.014Z,4.72
2023-04-09T17:57:07.724Z,5.47
2023-04-09T17:59:36.366Z,7.22
2023-04-09T18:02:04.757Z,4.25
2023-04-09T18:04:34.444Z,5.42
2023-04-09T18:07:03.675Z,4.78
2023-04-09T18:09:32.032Z,5.40
2023-04-09T18:12:01.768Z,5.95
2023-04-09T18:14:31.648Z,5.47
2023-04-09T18:17:00.029Z,5.67
2023-04-09T18:19:28.285Z,6.30
2023-04-09T18:21:56.543Z,7.00
2023-04-09T18:24:26.193Z,6.15
2023-04-09T18:26:54.468Z,6.55
2023-04-09T18:29:22.736Z,6.78
2023-04-09T18:31:51.014Z,6.95
2023-04-09T18:34:21.736Z,5.87
2023-04-09T18:36:49.279Z,5.92
2023-04-09T18:39:18.338Z,6.60
2023-04-09T18:41:46.880Z,5.65
2023-04-09T18:44:16.284Z,6.08
2023-04-09T18:46:44.653Z,6.55
2023-04-09T18:49:12.996Z,5.85
2023-04-09T18:51:41.214Z,5.87
2023-04-09T18:54:09.496Z,6.92
2023-04-09T18:56:37.774Z,7.60
2023-04-09T18:59:06.203Z,6.15
2023-04-09T19:01:34.574Z,9.45
2023-04-09T19:04:04.251Z,7.10
2023-04-09T19:06:34.198Z,6.28
2023-04-09T19:09:02.657Z,6.47
2023-04-09T19:11:31.307Z,6.15
2023-04-09T19:13:59.560Z,6.15
2023-04-09T19:16:27.821Z,7.83
2023-04-09T19:18:56.669Z,6.10
2023-04-09T19:21:24.947Z,7.25
2023-04-09T19:23:53.197Z,7.70
2023-04-09T19:26:22.035Z,8.18
2023-04-09T19:28:50.299Z,7.03
2023-04-09T19:31:18.611Z,6.40
2023-04-09T19:33:46.849Z,7.65
2023-04-09T19:36:15.572Z,7.55
2023-04-09T19:38:43.865Z,8.00
2023-04-09T19:41:12.135Z,8.60
2023-04-09T19:43:42.049Z,7.58
2023-04-09T19:46:10.384Z,6.75
2023-04-09T19:48:40.631Z,7.67
2023-04-09T19:51:09.083Z,10.25
2023-04-09T19:53:37.655Z,7.97
2023-04-09T19:56:06.160Z,9.48
2023-04-09T19:58:34.774Z,7.80
2023-04-09T20:01:03.087Z,7.08
2023-04-09T20:03:33.350Z,9.08
2023-04-09T20:06:03.310Z,8.10
2023-04-09T20:08:31.569Z,6.42
2023-04-09T20:10:59.861Z,8.73
2023-04-09T20:13:47.804Z,7.28
2023-04-09T20:16:16.450Z,7.53
2023-04-09T20:18:44.848Z,9.75
2023-04-09T20:21:14.138Z,8.53
2023-04-09T20:23:44.084Z,9.48
2023-04-09T20:26:13.349Z,12.28
2023-04-09T20:28:41.787Z,11.20
2023-04-09T20:31:10.026Z,9.83
2023-04-09T20:33:38.317Z,9.33
2023-04-09T20:36:08.154Z,8.08
2023-04-09T20:38:36.545Z,7.40
2023-04-09T20:41:04.942Z,8.73
2023-04-09T20:43:33.202Z,9.25
2023-04-09T20:46:01.530Z,9.45
2023-04-09T20:48:31.400Z,8.65
2023-04-09T20:50:59.641Z,9.63
2023-04-09T20:53:28.487Z,9.28
2023-04-09T20:55:57.347Z,9.18
2023-04-09T20:58:25.810Z,9.63
2023-04-09T21:00:56.286Z,9.40
2023-04-09T21:03:25.374Z,9.43
2023-04-09T21:05:53.746Z,9.70
2023-04-09T21:08:22.005Z,9.08
2023-04-09T21:10:50.661Z,7.97
2023-04-09T21:13:18.965Z,12.07
2023-04-09T21:15:47.213Z,10.25
2023-04-09T21:18:34.850Z,9.45
2023-04-09T21:21:04.669Z,8.80
2023-04-09T21:23:32.990Z,11.03
2023-04-09T21:26:01.307Z,10.28
2023-04-09T21:28:29.561Z,11.08
2023-04-09T21:30:57.995Z,9.75
2023-04-09T21:33:28.537Z,12.60
2023-04-09T21:35:56.713Z,9.08
2023-04-09T21:38:25.050Z,8.80
2023-04-09T21:40:53.324Z,10.60
2023-04-09T21:43:21.617Z,9.53
2023-04-09T21:45:49.913Z,9.93
2023-04-09T21:48:18.126Z,10.35
2023-04-09T21:50:46.418Z,9.55
2023-04-09T21:53:14.661Z,11.53
2023-04-09T21:55:42.945Z,10.13
2023-04-09T21:58:11.953Z,10.93
2023-04-09T22:00:40.410Z,11.65
2023-04-09T22:03:08.833Z,9.25
2023-04-09T22:05:37.306Z,10.93
2023-04-09T22:08:05.732Z,9.68
2023-04-09T22:10:34.004Z,12.07
2023-04-09T22:13:02.240Z,9.78
2023-04-09T22:15:31.013Z,10.55
2023-04-09T22:17:59.305Z,9.23
2023-04-09T22:20:27.688Z,10.03
2023-04-09T22:22:56.157Z,13.32
2023-04-09T22:25:24.659Z,11.35
2023-04-09T22:27:53.487Z,10.32
2023-04-09T22:30:23.530Z,11.18
2023-04-09T22:32:51.954Z,12.05
2023-04-09T22:35:20.369Z,11.03
2023-04-09T22:37:50.638Z,10.35
2023-04-09T22:40:19.101Z,12.82
2023-04-09T22:42:47.880Z,10.90
2023-04-09T22:45:16.151Z,10.25
2023-04-09T22:47:44.474Z,11.20
2023-04-09T22:50:13.762Z,12.35
2023-04-09T22:52:42.008Z,11.28
2023-04-09T22:55:11.202Z,10.75
2023-04-09T22:57:59.471Z,11.70
2023-04-09T23:00:27.718Z,11.60
2023-04-09T23:02:56.217Z,11.53
2023-04-09T23:05:24.742Z,12.13
2023-04-09T23:07:53.007Z,11.05
2023-04-09T23:10:21.736Z,34.80
2023-04-09T23:12:50.489Z,17.85
2023-04-09T23:15:18.874Z,11.10
2023-04-09T23:17:47.254Z,10.78
2023-04-09T23:20:23.169Z,11.90
2023-04-09T23:22:51.416Z,14.13
2023-04-09T23:25:21.609Z,13.65
2023-04-09T23:27:50.146Z,13.70
2023-04-09T23:30:18.401Z,15.63
2023-04-09T23:32:46.869Z,11.33
2023-04-09T23:35:16.620Z,11.25
2023-04-09T23:37:45.479Z,11.43
2023-04-09T23:40:15.070Z,12.50
2023-04-09T23:42:43.390Z,10.45
2023-04-09T23:45:12.025Z,10.35
2023-04-09T23:47:40.336Z,13.38
2023-04-09T23:50:08.934Z,11.97
2023-04-09T23:52:39.192Z,12.37
2023-04-09T23:55:10.495Z,11.38
2023-04-09T23:57:39.610Z,14.23
